Time;durP1;ratioP1;P1;durP2;ratioP2;P2;SDS_P1;SDS_P2;PMS_P1;PMS_P2;Temp;Humidity;BMP_temperature;BMP_pressure;BME280_temperature;BME280_humidity;BME280_pressure;Samples;Min_cycle;Max_cycle;Signal;HPM_P1;HPM_P2
2022/05/13 00:02:06;;;;;;;1999.90;999.90;;;11.10;99.90;;;;;;4966210;28;20053;-72
2022/05/13 00:04:32;;;;;;;1999.90;999.90;;;11.20;99.90;;;;;;4968365;28;20464;-72
2022/05/13 00:06:57;;;;;;;1999.90;999.90;;;11.20;99.90;;;;;;4930908;28;20043;-72
2022/05/13 00:09:56;;;;;;;1999.90;999.90;;;11.20;99.90;;;;;;4979322;28;20138;-72
2022/05/13 00:12:09;;;;;;;1999.90;999.90;;;11.20;99.90;;;;;;4953497;28;20094;-72
2022/05/13 00:14:35;;;;;;;1999.90;999.90;;;11.20;99.90;;;;;;4990668;28;20071;-72
2022/05/13 00:17:00;;;;;;;1999.90;999.90;;;11.30;99.90;;;;;;4947930;28;20132;-72
2022/05/13 00:19:26;;;;;;;1999.90;999.90;;;11.30;99.90;;;;;;4946463;28;20048;-72
2022/05/13 00:21:51;;;;;;;1999.90;999.90;;;11.30;99.90;;;;;;4978719;28;20641;-72
2022/05/13 00:24:17;;;;;;;1999.90;999.90;;;11.30;99.90;;;;;;4978900;28;20109;-72
2022/05/13 00:26:43;;;;;;;1999.90;999.90;;;11.40;99.90;;;;;;4978560;28;20043;-72
2022/05/13 00:29:08;;;;;;;1999.90;999.90;;;11.40;99.90;;;;;;4940946;28;20047;-72
2022/05/13 00:31:34;;;;;;;1999.90;999.90;;;11.40;99.90;;;;;;4947164;28;20047;-72
2022/05/13 00:33:59;;;;;;;1999.90;999.90;;;11.50;99.90;;;;;;4949410;28;20043;-72
2022/05/13 00:36:25;;;;;;;1999.90;999.90;;;11.50;99.90;;;;;;4965464;28;20092;-72
2022/05/13 00:38:50;;;;;;;1999.90;999.90;;;11.50;99.90;;;;;;4948748;28;20038;-72
2022/05/13 00:41:16;;;;;;;1999.90;999.90;;;11.50;99.90;;;;;;4947611;28;20043;-72
2022/05/13 00:43:52;;;;;;;1999.90;999.90;;;11.60;99.90;;;;;;4966231;28;20104;-72
2022/05/13 00:46:22;;;;;;;1999.90;999.90;;;11.60;99.90;;;;;;4936818;28;20074;-72
2022/05/13 00:48:48;;;;;;;1999.90;999.90;;;11.60;99.90;;;;;;4977373;28;20083;-72
2022/05/13 00:51:23;;;;;;;1999.90;999.90;;;11.60;99.90;;;;;;4933166;29;20071;-72
2022/05/13 00:53:49;;;;;;;1999.90;999.90;;;11.60;99.90;;;;;;4941055;28;20079;-72
2022/05/13 00:56:15;;;;;;;1999.90;999.90;;;11.60;99.90;;;;;;4984777;28;20127;-72
2022/05/13 00:58:46;;;;;;;1999.90;999.90;;;11.60;99.90;;;;;;4977182;28;20043;-72
2022/05/13 01:01:13;;;;;;;1999.90;999.90;;;11.70;99.90;;;;;;5001698;28;20051;-72
2022/05/13 01:03:39;;;;;;;1999.90;999.90;;;11.60;99.90;;;;;;4952530;28;20042;-72
2022/05/13 01:06:10;;;;;;;1999.90;999.90;;;11.60;99.90;;;;;;4987794;28;20043;-72
2022/05/13 01:08:36;;;;;;;1999.90;999.90;;;11.60;99.90;;;;;;4953442;28;20494;-72
2022/05/13 01:11:06;;;;;;;1999.90;999.90;;;11.60;99.90;;;;;;4954410;28;20053;-72
2022/05/13 01:13:34;;;;;;;1999.90;999.90;;;11.60;99.90;;;;;;4978450;28;20050;-73
2022/05/13 01:16:00;;;;;;;1999.90;999.90;;;11.60;99.90;;;;;;4981795;28;20406;-72
2022/05/13 01:18:28;;;;;;;1999.90;999.90;;;11.60;99.90;;;;;;4953100;28;20083;-72
2022/05/13 01:20:54;;;;;;;1999.90;999.90;;;11.60;99.90;;;;;;4958922;28;20621;-72
2022/05/13 01:23:30;;;;;;;1999.90;999.90;;;11.60;99.90;;;;;;4933261;28;20109;-72
2022/05/13 01:26:03;;;;;;;1999.90;999.90;;;11.60;99.90;;;;;;4938485;28;20054;-73
2022/05/13 01:28:34;;;;;;;1999.90;999.90;;;11.60;99.90;;;;;;4965548;28;20046;-73
2022/05/13 01:31:07;;;;;;;1999.90;999.90;;;11.60;99.90;;;;;;4934847;28;20047;-72
2022/05/13 01:33:33;;;;;;;1999.90;999.90;;;11.60;99.90;;;;;;4956416;28;20055;-72
2022/05/13 01:36:00;;;;;;;1999.90;999.90;;;11.60;99.90;;;;;;4934203;28;20043;-72
2022/05/13 01:38:31;;;;;;;1999.90;999.90;;;11.60;99.90;;;;;;4932556;28;20109;-72
2022/05/13 01:40:57;;;;;;;1999.90;999.90;;;11.60;99.90;;;;;;4948738;28;20491;-72
2022/05/13 01:43:23;;;;;;;1999.90;999.90;;;11.60;99.90;;;;;;4964349;28;20085;-72
2022/05/13 01:45:49;;;;;;;1999.90;999.90;;;11.60;99.90;;;;;;4932441;28;20051;-72
2022/05/13 01:48:15;;;;;;;1999.90;999.90;;;11.60;99.90;;;;;;4939459;28;20053;-72
2022/05/13 01:50:41;;;;;;;1999.90;999.90;;;11.60;99.90;;;;;;4948404;28;20062;-72
2022/05/13 01:53:07;;;;;;;1999.90;999.90;;;11.60;99.90;;;;;;4938421;28;20412;-72
2022/05/13 01:55:33;;;;;;;1999.90;999.90;;;11.60;99.90;;;;;;4933079;28;20134;-72
2022/05/13 01:57:59;;;;;;;1999.90;999.90;;;11.60;99.90;;;;;;4994577;28;20122;-72
2022/05/13 02:00:25;;;;;;;1999.90;999.90;;;11.60;99.90;;;;;;4967843;28;20130;-72
2022/05/13 02:05:35;;;;;;;1999.90;999.90;;;11.60;99.90;;;;;;5049372;28;20082;-72
2022/05/13 02:08:01;;;;;;;1999.90;999.90;;;11.60;99.90;;;;;;4980592;28;20090;-72
2022/05/13 02:10:26;;;;;;;1999.90;999.90;;;11.60;99.90;;;;;;4951157;28;20415;-72
2022/05/13 02:12:52;;;;;;;1999.90;999.90;;;11.60;99.90;;;;;;4946580;29;20066;-72
2022/05/13 02:15:18;;;;;;;1999.90;999.90;;;11.70;99.90;;;;;;4948394;28;20043;-72
2022/05/13 02:17:44;;;;;;;1999.90;999.90;;;11.70;99.90;;;;;;4941271;28;20046;-72
2022/05/13 02:20:10;;;;;;;1999.90;999.90;;;11.70;99.90;;;;;;4951862;28;20039;-72
2022/05/13 02:22:37;;;;;;;1999.90;999.90;;;11.70;99.90;;;;;;4936029;29;20047;-72
2022/05/13 02:25:03;;;;;;;1999.90;999.90;;;11.70;99.90;;;;;;4934809;28;20043;-72
2022/05/13 02:27:29;;;;;;;1999.90;999.90;;;11.70;99.90;;;;;;4962851;28;20043;-73
2022/05/13 02:29:54;;;;;;;1999.90;999.90;;;11.70;99.90;;;;;;4967547;28;20894;-72
2022/05/13 02:32:20;;;;;;;1999.90;999.90;;;11.70;99.90;;;;;;4950713;28;20057;-72
2022/05/13 02:34:46;;;;;;;1999.90;999.90;;;11.70;99.90;;;;;;4948377;28;20418;-72
2022/05/13 02:37:12;;;;;;;1999.90;999.90;;;11.70;99.90;;;;;;4994712;28;20094;-72
2022/05/13 02:39:38;;;;;;;1999.90;999.90;;;11.70;99.90;;;;;;5000015;28;20293;-72
2022/05/13 02:42:04;;;;;;;1999.90;999.90;;;11.70;99.90;;;;;;4999144;28;20049;-72
2022/05/13 02:44:29;;;;;;;1999.90;999.90;;;11.70;99.90;;;;;;4938597;28;20468;-72
2022/05/13 02:46:55;;;;;;;1999.90;999.90;;;11.70;99.90;;;;;;4992389;28;20078;-72
2022/05/13 02:49:21;;;;;;;1999.90;999.90;;;11.70;99.90;;;;;;4943552;28;20045;-72
2022/05/13 02:51:48;;;;;;;1999.90;999.90;;;11.70;99.90;;;;;;4950683;28;20043;-72
2022/05/13 02:54:15;;;;;;;1999.90;999.90;;;11.70;99.90;;;;;;4951143;28;20104;-72
2022/05/13 02:56:40;;;;;;;1999.90;999.90;;;11.70;99.90;;;;;;4963225;28;20082;-73
2022/05/13 02:59:06;;;;;;;1999.90;999.90;;;11.70;99.90;;;;;;4947840;28;20511;-72
2022/05/13 03:01:32;;;;;;;1999.90;999.90;;;11.70;99.90;;;;;;4950419;28;20041;-72
2022/05/13 03:03:58;;;;;;;1999.90;999.90;;;11.70;99.90;;;;;;4997878;28;20038;-72
2022/05/13 03:06:25;;;;;;;1999.90;999.90;;;11.70;99.90;;;;;;4951354;28;20058;-72
2022/05/13 03:08:52;;;;;;;1999.90;999.90;;;11.70;99.90;;;;;;4999500;28;20046;-72
2022/05/13 03:11:19;;;;;;;1999.90;999.90;;;11.70;99.90;;;;;;4973798;28;20051;-72
2022/05/13 03:13:45;;;;;;;1999.90;999.90;;;11.70;99.90;;;;;;4981553;28;20172;-72
2022/05/13 03:16:19;;;;;;;1999.90;999.90;;;11.70;99.90;;;;;;4979168;28;20074;-72
2022/05/13 03:18:47;;;;;;;1999.90;999.90;;;11.70;99.90;;;;;;4935230;28;20078;-72
2022/05/13 03:21:13;;;;;;;1999.90;999.90;;;11.70;99.90;;;;;;4949410;28;20047;-72
2022/05/13 03:23:42;;;;;;;1999.90;999.90;;;11.80;99.90;;;;;;4947125;28;20061;-72
2022/05/13 03:26:09;;;;;;;1999.90;999.90;;;11.80;99.90;;;;;;4948279;28;20145;-72
2022/05/13 03:28:35;;;;;;;1999.90;999.90;;;11.80;99.90;;;;;;4962333;28;20043;-72
2022/05/13 03:31:00;;;;;;;1999.90;999.90;;;11.80;99.90;;;;;;5031173;28;20479;-72
2022/05/13 03:33:26;;;;;;;1999.90;999.90;;;11.80;99.90;;;;;;4945293;28;20080;-72
2022/05/13 03:35:52;;;;;;;1999.90;999.90;;;11.80;99.90;;;;;;4948797;28;20521;-72
2022/05/13 03:38:18;;;;;;;1999.90;999.90;;;11.80;99.90;;;;;;4953697;28;20443;-72
2022/05/13 03:40:46;;;;;;;1999.90;999.90;;;11.80;99.90;;;;;;4966425;28;20519;-72
2022/05/13 03:43:12;;;;;;;1999.90;999.90;;;11.80;99.90;;;;;;4962147;28;20120;-72
2022/05/13 03:45:38;;;;;;;1999.90;999.90;;;11.80;99.90;;;;;;4982631;28;20042;-72
2022/05/13 03:48:05;;;;;;;1999.90;999.90;;;11.80;99.90;;;;;;4949407;28;20051;-73
2022/05/13 03:50:32;;;;;;;1999.90;999.90;;;11.90;99.90;;;;;;4986053;28;20128;-72
2022/05/13 03:52:59;;;;;;;1999.90;999.90;;;11.90;99.90;;;;;;4936501;28;20046;-72
2022/05/13 03:55:24;;;;;;;1999.90;999.90;;;11.90;99.90;;;;;;4945920;28;20051;-73
2022/05/13 03:57:50;;;;;;;1999.90;999.90;;;11.90;99.90;;;;;;4966404;28;20046;-72
2022/05/13 04:00:16;;;;;;;1999.90;999.90;;;12.00;99.90;;;;;;4978687;28;20126;-73
2022/05/13 04:02:42;;;;;;;1999.90;999.90;;;12.00;99.90;;;;;;4931189;28;20047;-73
2022/05/13 04:10:38;;;;;;;1999.90;999.90;;;12.00;99.90;;;;;;4965471;28;20047;-72
2022/05/13 04:16:06;;;;;;;1999.90;999.90;;;12.00;99.90;;;;;;4961969;28;20051;-73
2022/05/13 04:18:44;;;;;;;1999.90;999.90;;;12.00;99.90;;;;;;4930405;28;20433;-72
2022/05/13 04:21:21;;;;;;;1999.90;999.90;;;12.00;99.90;;;;;;4930839;29;20079;-73
2022/05/13 04:23:48;;;;;;;1999.90;999.90;;;12.00;99.90;;;;;;4978082;28;20085;-73
2022/05/13 04:26:15;;;;;;;1999.90;999.90;;;12.00;99.90;;;;;;4947539;28;20051;-73
2022/05/13 04:28:46;;;;;;;1999.90;999.90;;;12.00;99.90;;;;;;4930939;28;20055;-72
2022/05/13 04:31:14;;;;;;;1999.90;999.90;;;12.00;99.90;;;;;;4978984;28;20043;-73
2022/05/13 04:33:40;;;;;;;1999.90;999.90;;;12.00;99.90;;;;;;4978409;28;20043;-72
2022/05/13 04:36:06;;;;;;;1999.90;999.90;;;12.10;99.90;;;;;;4997843;28;20053;-73
2022/05/13 04:38:33;;;;;;;1999.90;999.90;;;12.00;99.90;;;;;;4993547;28;20035;-73
2022/05/13 04:42:49;;;;;;;1999.90;999.90;;;12.10;99.90;;;;;;4948105;28;20055;-72
2022/05/13 04:43:47;;;;;;;1999.90;999.90;;;12.10;99.90;;;;;;4956550;28;20051;-73
2022/05/13 04:46:13;;;;;;;1999.90;999.90;;;12.10;99.90;;;;;;4991312;28;20091;-72
2022/05/13 04:48:38;;;;;;;1999.90;999.90;;;12.10;99.90;;;;;;4949455;28;20034;-72
2022/05/13 04:51:04;;;;;;;1999.90;999.90;;;12.10;99.90;;;;;;4964849;28;20067;-73
2022/05/13 04:53:36;;;;;;;1999.90;999.90;;;12.20;99.90;;;;;;4945737;28;20044;-73
2022/05/13 04:56:04;;;;;;;1999.90;999.90;;;12.20;99.90;;;;;;4946096;28;20118;-73
2022/05/13 04:58:30;;;;;;;1999.90;999.90;;;12.20;99.90;;;;;;4959554;28;20410;-72
2022/05/13 05:00:57;;;;;;;1999.90;999.90;;;12.20;99.90;;;;;;4959350;28;20119;-73
2022/05/13 05:03:27;;;;;;;1999.90;999.90;;;12.30;99.90;;;;;;4962379;28;20050;-73
2022/05/13 05:05:53;;;;;;;1999.90;999.90;;;12.40;99.90;;;;;;4965602;28;20410;-73
2022/05/13 05:08:18;;;;;;;1999.90;999.90;;;12.40;99.90;;;;;;4962727;28;20130;-73
2022/05/13 05:10:45;;;;;;;1999.90;999.90;;;12.50;99.90;;;;;;4942054;28;20121;-73
2022/05/13 05:13:28;;;;;;;1999.90;999.90;;;12.60;99.90;;;;;;4996611;28;20043;-73
2022/05/13 05:15:54;;;;;;;1999.90;999.90;;;12.70;99.90;;;;;;4983369;28;20049;-73
2022/05/13 05:18:20;;;;;;;1999.90;999.90;;;12.80;99.90;;;;;;4952469;28;20045;-73
2022/05/13 05:20:46;;;;;;;1999.90;999.90;;;12.80;99.90;;;;;;4962564;28;20042;-73
2022/05/13 05:23:21;;;;;;;1999.90;999.90;;;12.80;99.90;;;;;;4957977;28;20185;-73
2022/05/13 05:25:47;;;;;;;1999.90;999.90;;;12.90;99.90;;;;;;4978465;28;20462;-73
2022/05/13 05:28:13;;;;;;;1999.90;999.90;;;13.00;99.90;;;;;;4965703;28;20082;-73
2022/05/13 05:30:39;;;;;;;1999.90;999.90;;;13.00;99.90;;;;;;4974185;28;20047;-73
2022/05/13 05:33:06;;;;;;;1999.90;999.90;;;13.10;99.90;;;;;;4961177;28;20061;-73
2022/05/13 05:35:33;;;;;;;1999.90;999.90;;;13.10;99.90;;;;;;4967762;28;20046;-73
2022/05/13 05:37:59;;;;;;;1999.90;999.90;;;13.20;99.90;;;;;;4952386;28;20129;-73
2022/05/13 05:40:25;;;;;;;1999.90;999.90;;;13.20;99.90;;;;;;4958648;28;20564;-73
2022/05/13 05:42:51;;;;;;;1999.90;999.90;;;13.30;99.90;;;;;;4933074;28;20088;-73
2022/05/13 05:45:19;;;;;;;1999.90;999.90;;;13.30;99.90;;;;;;4949186;28;20492;-73
2022/05/13 05:47:44;;;;;;;1999.90;999.90;;;13.30;99.90;;;;;;4986246;28;20038;-73
2022/05/13 05:50:14;;;;;;;1999.90;999.90;;;13.30;99.90;;;;;;4964751;28;20054;-72
2022/05/13 05:52:40;;;;;;;1999.90;999.90;;;13.40;99.90;;;;;;4968370;28;20500;-72
2022/05/13 05:58:03;;;;;;;1999.90;999.90;;;13.30;99.90;;;;;;4958005;28;20494;-72
2022/05/13 06:00:30;;;;;;;1999.90;999.90;;;13.40;99.90;;;;;;4948436;28;20039;-73
2022/05/13 06:02:56;;;;;;;1999.90;999.90;;;13.30;99.90;;;;;;4958731;28;20051;-72
2022/05/13 06:05:26;;;;;;;1999.90;999.90;;;13.30;99.90;;;;;;4980192;28;20077;-73
2022/05/13 06:07:55;;;;;;;1999.90;999.90;;;13.40;99.90;;;;;;4968321;28;20510;-73
2022/05/13 06:10:21;;;;;;;1999.90;999.90;;;13.30;99.90;;;;;;4963795;28;20061;-74
2022/05/13 06:12:47;;;;;;;1999.90;999.90;;;13.40;99.90;;;;;;4992618;28;20054;-73
2022/05/13 06:15:13;;;;;;;1999.90;999.90;;;13.40;99.90;;;;;;4961394;28;20036;-73
2022/05/13 06:17:51;;;;;;;1999.90;999.90;;;13.50;99.90;;;;;;4948241;28;20426;-73
2022/05/13 06:20:19;;;;;;;1999.90;999.90;;;13.60;99.90;;;;;;4950019;28;20498;-73
2022/05/13 06:22:45;;;;;;;1999.90;999.90;;;13.60;99.90;;;;;;4967364;28;20479;-73
2022/05/13 06:25:13;;;;;;;1999.90;999.90;;;13.60;99.90;;;;;;4967106;28;20074;-73
2022/05/13 06:27:39;;;;;;;1999.90;999.90;;;13.70;99.90;;;;;;5000232;28;20485;-73
2022/05/13 06:30:11;;;;;;;1999.90;999.90;;;13.70;99.90;;;;;;4981327;28;20070;-73
2022/05/13 06:32:37;;;;;;;1999.90;999.90;;;13.80;99.90;;;;;;4955568;28;20046;-73
2022/05/13 06:35:04;;;;;;;1999.90;999.90;;;13.80;99.90;;;;;;4961573;28;20419;-73
2022/05/13 06:37:29;;;;;;;1999.90;999.90;;;13.90;99.90;;;;;;4948938;28;20118;-73
2022/05/13 06:39:55;;;;;;;1999.90;999.90;;;13.90;99.90;;;;;;4963952;28;20472;-73
2022/05/13 06:42:20;;;;;;;1999.90;999.90;;;13.90;99.90;;;;;;4931613;29;20046;-73
2022/05/13 06:44:46;;;;;;;1999.90;999.90;;;14.00;99.90;;;;;;4956775;28;20035;-73
2022/05/13 06:47:12;;;;;;;1999.90;999.90;;;14.10;99.90;;;;;;4966732;28;20081;-73
2022/05/13 06:49:37;;;;;;;1999.90;999.90;;;14.20;99.90;;;;;;4950442;28;20481;-73
2022/05/13 06:52:04;;;;;;;1999.90;999.90;;;14.30;99.90;;;;;;4955340;28;20125;-73
2022/05/13 06:54:30;;;;;;;1999.90;999.90;;;14.40;99.90;;;;;;4945648;28;20084;-73
2022/05/13 06:56:56;;;;;;;1999.90;999.90;;;14.50;99.90;;;;;;4950923;28;20491;-73
2022/05/13 06:59:22;;;;;;;1999.90;999.90;;;14.60;99.90;;;;;;4966968;28;20043;-73
2022/05/13 07:01:49;;;;;;;1999.90;999.90;;;14.70;99.90;;;;;;4980024;28;20130;-73
2022/05/13 07:04:15;;;;;;;1999.90;999.90;;;14.70;99.90;;;;;;4931611;28;20051;-74
2022/05/13 07:06:41;;;;;;;1999.90;999.90;;;14.60;99.90;;;;;;4945864;28;20046;-73
2022/05/13 07:09:07;;;;;;;1999.90;999.90;;;14.50;99.90;;;;;;4983157;28;20051;-73
2022/05/13 07:11:33;;;;;;;1999.90;999.90;;;14.50;99.90;;;;;;4982734;28;20050;-73
2022/05/13 07:13:59;;;;;;;1999.90;999.90;;;14.60;99.90;;;;;;4970824;28;20043;-73
2022/05/13 07:16:25;;;;;;;1999.90;999.90;;;14.60;99.90;;;;;;4947405;28;20051;-73
2022/05/13 07:18:51;;;;;;;1999.90;999.90;;;14.70;99.90;;;;;;4947104;28;20104;-73
2022/05/13 07:21:16;;;;;;;1999.90;999.90;;;14.80;99.90;;;;;;4961950;28;20047;-73
2022/05/13 07:23:42;;;;;;;1999.90;999.90;;;15.00;99.90;;;;;;4967102;28;20057;-74
2022/05/13 07:26:09;;;;;;;1999.90;999.90;;;15.40;99.90;;;;;;4947761;28;20051;-71
2022/05/13 07:28:35;;;;;;;1999.90;999.90;;;16.00;99.90;;;;;;4937449;28;20047;-71
2022/05/13 07:31:02;;;;;;;1999.90;999.90;;;16.50;99.90;;;;;;4965015;28;20096;-71
2022/05/13 07:33:29;;;;;;;1999.90;999.90;;;17.00;99.90;;;;;;4991230;28;20092;-71
2022/05/13 07:35:55;;;;;;;1999.90;999.90;;;17.50;99.90;;;;;;4966051;28;20488;-71
2022/05/13 07:38:21;;;;;;;1999.90;999.90;;;17.30;99.90;;;;;;4950757;28;20390;-71
2022/05/13 07:43:30;;;;;;;1999.90;999.90;;;16.80;99.90;;;;;;4966527;28;20082;-71
2022/05/13 07:45:56;;;;;;;1999.90;999.90;;;16.60;99.90;;;;;;4941218;29;20074;-71
2022/05/13 07:48:22;;;;;;;1999.90;999.90;;;16.60;99.90;;;;;;4946839;29;20505;-72
2022/05/13 07:50:47;;;;;;;1999.90;999.90;;;16.60;99.90;;;;;;4944735;28;20074;-71
2022/05/13 07:53:13;;;;;;;1999.90;999.90;;;16.50;99.90;;;;;;4945832;28;20051;-71
2022/05/13 07:55:39;;;;;;;1999.90;999.90;;;16.30;99.90;;;;;;4946956;28;20035;-71
2022/05/13 07:58:04;;;;;;;1999.90;999.90;;;16.10;99.90;;;;;;4946597;28;20050;-71
2022/05/13 08:00:33;;;;;;;1999.90;999.90;;;16.20;99.90;;;;;;4938708;28;20526;-71
2022/05/13 08:03:00;;;;;;;1999.90;999.90;;;16.30;99.90;;;;;;4985497;28;20328;-70
2022/05/13 08:05:29;;;;;;;1999.90;999.90;;;16.10;99.90;;;;;;4981546;28;20108;-71
2022/05/13 08:08:11;;;;;;;1999.90;999.90;;;15.70;99.90;;;;;;4989080;28;20047;-71
2022/05/13 08:10:39;;;;;;;1999.90;999.90;;;15.40;99.90;;;;;;4982047;28;20130;-71
2022/05/13 08:13:06;;;;;;;1999.90;999.90;;;15.30;99.90;;;;;;4958625;28;20044;-70
2022/05/13 08:15:32;;;;;;;1999.90;999.90;;;15.20;99.90;;;;;;4963706;28;20074;-71
2022/05/13 08:17:58;;;;;;;1999.90;999.90;;;15.10;99.90;;;;;;4957696;28;20081;-71
2022/05/13 08:20:24;;;;;;;1999.90;999.90;;;15.00;99.90;;;;;;4959022;28;20035;-71
2022/05/13 08:22:50;;;;;;;1999.90;999.90;;;14.90;99.90;;;;;;4932629;28;20457;-71
2022/05/13 08:25:16;;;;;;;1999.90;999.90;;;15.00;99.90;;;;;;4967550;28;20104;-71
2022/05/13 08:27:42;;;;;;;1999.90;999.90;;;15.10;99.90;;;;;;4946297;28;20063;-70
2022/05/13 08:30:09;;;;;;;1999.90;999.90;;;15.00;99.90;;;;;;4962563;28;20134;-71
2022/05/13 08:32:35;;;;;;;1999.90;999.90;;;15.00;99.90;;;;;;4954245;28;20471;-71
2022/05/13 08:35:01;;;;;;;1999.90;999.90;;;15.10;99.90;;;;;;4945036;28;20156;-71
2022/05/13 08:37:26;;;;;;;1999.90;999.90;;;15.90;99.90;;;;;;4975122;28;20503;-71
2022/05/13 08:39:52;;;;;;;1999.90;999.90;;;16.60;99.90;;;;;;4967108;28;20491;-71
2022/05/13 08:42:37;;;;;;;1999.90;999.90;;;16.70;99.90;;;;;;4949326;28;20042;-71
2022/05/13 08:45:08;;;;;;;1999.90;999.90;;;16.50;99.90;;;;;;4953098;28;20062;-71
2022/05/13 08:48:07;;;;;;;1999.90;999.90;;;16.00;99.90;;;;;;4963354;28;20042;-71
2022/05/13 08:50:37;;;;;;;1999.90;999.90;;;15.60;99.90;;;;;;5007579;28;20061;-71
2022/05/13 08:53:20;;;;;;;1999.90;999.90;;;15.90;99.90;;;;;;5002600;28;20041;-71
2022/05/13 08:55:49;;;;;;;1999.90;999.90;;;17.00;99.90;;;;;;4993058;28;20052;-71
2022/05/13 08:58:21;;;;;;;1999.90;999.90;;;17.70;99.90;;;;;;4995912;28;20089;-71
2022/05/13 09:00:50;;;;;;;1999.90;999.90;;;18.00;99.90;;;;;;4985671;28;20440;-72
2022/05/13 09:03:24;;;;;;;1999.90;999.90;;;17.90;99.90;;;;;;5004355;28;20041;-72
2022/05/13 09:06:04;;;;;;;1999.90;999.90;;;18.20;99.90;;;;;;4996008;28;20046;-72
2022/05/13 09:08:30;;;;;;;1999.90;999.90;;;18.60;99.30;;;;;;5009230;28;20590;-72
2022/05/13 09:11:08;;;;;;;1999.90;999.90;;;19.00;98.00;;;;;;5009243;28;20148;-73
2022/05/13 09:13:39;;;;;;;1999.90;999.90;;;19.20;95.80;;;;;;4997347;28;20104;-73
2022/05/13 09:16:08;;;;;;;1999.90;999.90;;;19.40;96.80;;;;;;4999674;28;20063;-73
2022/05/13 09:18:46;;;;;;;1999.90;999.90;;;19.60;94.60;;;;;;4999709;28;20042;-72
2022/05/13 09:21:19;;;;;;;1999.90;999.90;;;19.30;93.80;;;;;;5012666;28;20100;-73
2022/05/13 09:23:45;;;;;;;1999.90;999.90;;;19.00;94.10;;;;;;5008388;28;20084;-72
2022/05/13 09:26:22;;;;;;;1999.90;999.90;;;18.40;93.10;;;;;;4991195;28;20133;-72
2022/05/13 09:29:05;;;;;;;1999.90;999.90;;;18.00;94.30;;;;;;4944695;28;20053;-73
2022/05/13 09:31:34;;;;;;;1999.90;999.90;;;17.50;95.10;;;;;;4970388;28;20534;-72
2022/05/13 09:34:00;;;;;;;1999.90;999.90;;;17.20;96.40;;;;;;4968742;28;20055;-72
2022/05/13 09:36:26;;;;;;;1999.90;999.90;;;16.90;96.70;;;;;;4974737;28;20183;-72
2022/05/13 09:39:15;;;;;;;1999.90;999.90;;;16.80;97.20;;;;;;4963599;28;20459;-72
2022/05/13 09:41:40;;;;;;;1999.90;999.90;;;16.80;97.80;;;;;;4951112;28;20042;-72
2022/05/13 09:44:19;;;;;;;1999.90;999.90;;;16.70;97.90;;;;;;4956901;28;20452;-72
2022/05/13 09:46:51;;;;;;;1999.90;999.90;;;16.60;98.20;;;;;;4955110;28;20051;-72
2022/05/13 09:49:36;;;;;;;1999.90;999.90;;;16.70;97.70;;;;;;4940302;28;20121;-72
2022/05/13 09:52:25;;;;;;;1999.90;999.90;;;16.60;97.80;;;;;;4984685;28;20043;-72
2022/05/13 09:54:52;;;;;;;1999.90;999.90;;;16.40;97.50;;;;;;4973478;28;20039;-72
2022/05/13 09:57:22;;;;;;;1999.90;999.90;;;16.30;98.20;;;;;;4990956;28;20180;-72
2022/05/13 10:00:03;;;;;;;1999.90;999.90;;;16.30;98.90;;;;;;4968778;28;20053;-72
2022/05/13 10:02:29;;;;;;;1999.90;999.90;;;16.50;98.80;;;;;;4945815;28;20108;-72
2022/05/13 10:05:14;;;;;;;1999.90;999.90;;;16.70;99.10;;;;;;4939920;28;20562;-72
2022/05/13 10:08:07;;;;;;;1999.90;999.90;;;17.20;99.50;;;;;;4945747;28;20051;-72
2022/05/13 10:16:27;;;;;;;1999.90;999.90;;;17.90;95.80;;;;;;4966491;28;20514;-72
2022/05/13 10:18:56;;;;;;;1999.90;999.90;;;17.70;96.20;;;;;;4943240;28;20526;-72
2022/05/13 10:21:29;;;;;;;1999.90;999.90;;;17.50;96.20;;;;;;4957917;28;20043;-72
2022/05/13 10:24:04;;;;;;;1999.90;999.90;;;17.30;96.80;;;;;;4957272;28;20050;-72
2022/05/13 10:26:35;;;;;;;1999.90;999.90;;;17.10;97.10;;;;;;4934855;28;20042;-72
2022/05/13 10:29:18;;;;;;;1999.90;999.90;;;17.00;97.60;;;;;;4964891;28;20460;-73
2022/05/13 10:31:46;;;;;;;1999.90;999.90;;;16.90;98.10;;;;;;4951274;28;20098;-73
2022/05/13 10:34:38;;;;;;;1999.90;999.90;;;17.00;98.00;;;;;;4965592;28;20059;-72
2022/05/13 10:37:33;;;;;;;1999.90;999.90;;;17.00;97.60;;;;;;4952428;28;20050;-72
2022/05/13 10:40:03;;;;;;;1999.90;999.90;;;16.80;96.60;;;;;;4949723;28;20072;-72
2022/05/13 10:42:35;;;;;;;1999.90;999.90;;;16.90;97.50;;;;;;5000216;28;20394;-73
2022/05/13 10:45:05;;;;;;;1999.90;999.90;;;17.20;97.30;;;;;;4999943;28;20509;-73
2022/05/13 10:47:43;;;;;;;1999.90;999.90;;;17.30;96.50;;;;;;4999684;28;20146;-72
2022/05/13 10:50:43;;;;;;;1999.90;999.90;;;17.30;96.70;;;;;;4953354;28;20469;-72
2022/05/13 10:53:26;;;;;;;1999.90;999.90;;;17.10;95.20;;;;;;4963724;28;20078;-73
2022/05/13 10:55:57;;;;;;;1999.90;999.90;;;16.90;95.50;;;;;;4973327;28;20401;-72
2022/05/13 10:58:41;;;;;;;1999.90;999.90;;;16.80;96.20;;;;;;4986035;28;20208;-72
2022/05/13 11:01:29;;;;;;;1999.90;999.90;;;16.80;96.20;;;;;;4933489;28;20096;-72
2022/05/13 11:04:00;;;;;;;1999.90;999.90;;;16.90;96.50;;;;;;4956911;28;20039;-72
2022/05/13 11:06:52;;;;;;;1999.90;999.90;;;16.80;95.70;;;;;;4940653;28;20145;-72
2022/05/13 11:09:17;;;;;;;1999.90;999.90;;;16.50;95.70;;;;;;4959850;28;20141;-73
2022/05/13 11:11:44;;;;;;;1999.90;999.90;;;16.30;96.00;;;;;;4962264;28;20188;-73
2022/05/13 11:14:32;;;;;;;1999.90;999.90;;;16.10;96.40;;;;;;4963692;28;20101;-72
2022/05/13 11:17:02;;;;;;;1999.90;999.90;;;16.00;97.20;;;;;;4947674;28;20047;-72
2022/05/13 11:19:36;;;;;;;1999.90;999.90;;;16.00;97.40;;;;;;4931441;28;20070;-72
2022/05/13 11:22:10;;;;;;;1999.90;999.90;;;15.90;97.30;;;;;;4947478;28;20043;-72
2022/05/13 11:28:19;;;;;;;1999.90;999.90;;;16.20;98.60;;;;;;4965465;28;20043;-72
2022/05/13 11:31:01;;;;;;;1999.90;999.90;;;16.60;97.90;;;;;;4966934;28;20453;-72
2022/05/13 11:33:57;;;;;;;1999.90;999.90;;;16.80;97.90;;;;;;4968067;28;20533;-72
2022/05/13 11:36:23;;;;;;;1999.90;999.90;;;17.10;97.50;;;;;;4947070;28;20082;-73
2022/05/13 11:39:26;;;;;;;1999.90;999.90;;;17.40;97.10;;;;;;4949653;28;20191;-73
2022/05/13 11:42:29;;;;;;;1999.90;999.90;;;17.80;97.10;;;;;;4943283;28;20043;-72
2022/05/13 11:44:58;;;;;;;;;;;18.00;95.80;;;;;;5011624;28;20051;-72
2022/05/13 11:47:42;;;;;;;1999.90;999.90;;;17.90;94.30;;;;;;4927679;29;20410;-72
2022/05/13 11:50:11;;;;;;;1999.90;999.90;;;18.20;95.30;;;;;;5010758;28;20059;-73
2022/05/13 11:52:40;;;;;;;1999.90;999.90;;;18.90;95.00;;;;;;4976883;28;20118;-73
2022/05/13 11:55:17;;;;;;;1999.90;999.90;;;19.30;92.50;;;;;;4994552;28;20043;-73
2022/05/13 11:57:50;;;;;;;1999.90;999.90;;;19.20;90.00;;;;;;4953759;28;20055;-72
2022/05/13 12:00:24;;;;;;;1999.90;999.90;;;18.80;87.60;;;;;;4961800;28;20051;-72
2022/05/13 12:03:04;;;;;;;1999.90;999.90;;;18.40;88.10;;;;;;4962656;28;20403;-72
2022/05/13 12:05:54;;;;;;;1999.90;999.90;;;18.00;88.60;;;;;;4955391;28;20092;-72
2022/05/13 12:08:54;;;;;;;1999.90;999.90;;;17.80;89.40;;;;;;4950286;28;20129;-72
2022/05/13 12:11:44;;;;;;;1999.90;999.90;;;17.50;90.10;;;;;;4950554;28;20055;-73
2022/05/13 12:14:44;;;;;;;1999.90;999.90;;;17.30;89.90;;;;;;4974005;28;20082;-72
2022/05/13 12:17:41;;;;;;;1999.90;999.90;;;17.20;90.80;;;;;;4960762;28;20046;-73
2022/05/13 12:20:29;;;;;;;1999.90;999.90;;;17.70;92.50;;;;;;4936699;28;20430;-72
2022/05/13 12:23:07;;;;;;;1999.90;999.90;;;17.90;91.60;;;;;;4960023;28;20114;-73
2022/05/13 12:25:33;;;;;;;1999.90;999.90;;;18.00;92.30;;;;;;4950947;28;20437;-73
2022/05/13 12:28:21;;;;;;;1999.90;999.90;;;18.20;91.50;;;;;;4961298;28;20098;-72
2022/05/13 12:30:49;;;;;;;1999.90;999.90;;;18.20;90.90;;;;;;4983120;28;20054;-72
2022/05/13 12:33:19;;;;;;;1999.90;999.90;;;18.30;91.60;;;;;;4957708;28;20161;-72
2022/05/13 12:39:04;;;;;;;1999.90;999.90;;;19.00;91.50;;;;;;4983696;28;20055;-72
2022/05/13 12:41:41;;;;;;;1999.90;999.90;;;18.60;89.70;;;;;;4987932;28;20049;-72
2022/05/13 12:44:35;;;;;;;1999.90;999.90;;;18.20;90.30;;;;;;4951045;28;20120;-73